sensor_id;sensor_type;location;lat;lon;timestamp;temperature;humidity
19805;DHT22;10062;51.052;13.756;2023-05-13T00:01:55;12.70;1.00
19805;DHT22;10062;51.052;13.756;2023-05-13T00:04:27;12.70;1.00
19805;DHT22;10062;51.052;13.756;2023-05-13T00:06:59;12.70;1.00
19805;DHT22;10062;51.052;13.756;2023-05-13T00:09:31;12.70;1.00
19805;DHT22;10062;51.052;13.756;2023-05-13T00:12:03;12.70;1.00
19805;DHT22;10062;51.052;13.756;2023-05-13T00:14:35;12.70;1.00
19805;DHT22;10062;51.052;13.756;2023-05-13T00:17:07;12.60;1.00
19805;DHT22;10062;51.052;13.756;2023-05-13T00:19:38;12.50;1.00
19805;DHT22;10062;51.052;13.756;2023-05-13T00:22:11;12.50;1.00
19805;DHT22;10062;51.052;13.756;2023-05-13T00:24:43;12.50;1.00
19805;DHT22;10062;51.052;13.756;2023-05-13T00:27:15;12.40;1.00
19805;DHT22;10062;51.052;13.756;2023-05-13T00:29:46;12.40;1.00
19805;DHT22;10062;51.052;13.756;2023-05-13T00:32:18;12.20;1.00
19805;DHT22;10062;51.052;13.756;2023-05-13T00:34:49;12.20;1.00
19805;DHT22;10062;51.052;13.756;2023-05-13T00:37:22;12.10;1.00
19805;DHT22;10062;51.052;13.756;2023-05-13T00:39:54;12.10;1.00
19805;DHT22;10062;51.052;13.756;2023-05-13T00:42:26;12.20;1.00
19805;DHT22;10062;51.052;13.756;2023-05-13T00:44:58;12.10;1.00
19805;DHT22;10062;51.052;13.756;2023-05-13T00:47:29;12.20;1.00
19805;DHT22;10062;51.052;13.756;2023-05-13T00:50:01;12.20;1.00
19805;DHT22;10062;51.052;13.756;2023-05-13T00:52:35;12.10;1.00
19805;DHT22;10062;51.052;13.756;2023-05-13T00:55:09;12.00;1.00
19805;DHT22;10062;51.052;13.756;2023-05-13T00:57:41;12.00;1.00
19805;DHT22;10062;51.052;13.756;2023-05-13T01:00:14;11.90;1.00
19805;DHT22;10062;51.052;13.756;2023-05-13T01:02:49;11.90;1.00
19805;DHT22;10062;51.052;13.756;2023-05-13T01:05:30;11.90;1.00
19805;DHT22;10062;51.052;13.756;2023-05-13T01:08:12;11.80;1.00
19805;DHT22;10062;51.052;13.756;2023-05-13T01:10:50;11.80;1.00
19805;DHT22;10062;51.052;13.756;2023-05-13T01:13:23;11.70;1.00
19805;DHT22;10062;51.052;13.756;2023-05-13T01:16:01;11.80;1.00
19805;DHT22;10062;51.052;13.756;2023-05-13T01:18:36;11.70;1.00
19805;DHT22;10062;51.052;13.756;2023-05-13T01:21:11;11.70;1.00
19805;DHT22;10062;51.052;13.756;2023-05-13T01:23:44;11.80;1.00
19805;DHT22;10062;51.052;13.756;2023-05-13T01:26:16;11.70;1.00
19805;DHT22;10062;51.052;13.756;2023-05-13T01:28:48;11.70;1.00
19805;DHT22;10062;51.052;13.756;2023-05-13T01:31:21;11.70;1.00
19805;DHT22;10062;51.052;13.756;2023-05-13T01:33:54;11.60;1.00
19805;DHT22;10062;51.052;13.756;2023-05-13T01:36:26;11.60;1.00
19805;DHT22;10062;51.052;13.756;2023-05-13T01:39:00;11.60;1.00
19805;DHT22;10062;51.052;13.756;2023-05-13T01:41:34;11.50;1.00
19805;DHT22;10062;51.052;13.756;2023-05-13T01:44:06;11.30;1.00
19805;DHT22;10062;51.052;13.756;2023-05-13T01:46:38;11.20;1.00
19805;DHT22;10062;51.052;13.756;2023-05-13T01:49:11;11.20;1.00
19805;DHT22;10062;51.052;13.756;2023-05-13T01:51:42;11.20;1.00
19805;DHT22;10062;51.052;13.756;2023-05-13T01:54:16;11.20;1.00
19805;DHT22;10062;51.052;13.756;2023-05-13T01:56:53;11.30;1.00
19805;DHT22;10062;51.052;13.756;2023-05-13T01:59:24;11.30;1.00
19805;DHT22;10062;51.052;13.756;2023-05-13T02:01:57;11.30;1.00
19805;DHT22;10062;51.052;13.756;2023-05-13T02:04:30;11.10;1.00
19805;DHT22;10062;51.052;13.756;2023-05-13T02:07:02;11.20;1.00
19805;DHT22;10062;51.052;13.756;2023-05-13T02:09:37;11.30;1.00
19805;DHT22;10062;51.052;13.756;2023-05-13T02:12:09;11.20;1.00
19805;DHT22;10062;51.052;13.756;2023-05-13T02:14:41;11.30;1.00
19805;DHT22;10062;51.052;13.756;2023-05-13T02:17:13;11.40;1.00
19805;DHT22;10062;51.052;13.756;2023-05-13T02:19:46;11.50;1.00
19805;DHT22;10062;51.052;13.756;2023-05-13T02:22:18;11.50;1.00
19805;DHT22;10062;51.052;13.756;2023-05-13T02:24:51;11.50;1.00
19805;DHT22;10062;51.052;13.756;2023-05-13T02:27:23;11.60;1.00
19805;DHT22;10062;51.052;13.756;2023-05-13T02:29:55;11.50;1.00
19805;DHT22;10062;51.052;13.756;2023-05-13T02:32:26;11.50;1.00
19805;DHT22;10062;51.052;13.756;2023-05-13T02:34:58;11.30;1.00
19805;DHT22;10062;51.052;13.756;2023-05-13T02:37:30;11.10;1.00
19805;DHT22;10062;51.052;13.756;2023-05-13T02:40:08;11.20;1.00
19805;DHT22;10062;51.052;13.756;2023-05-13T02:42:40;11.10;1.00
19805;DHT22;10062;51.052;13.756;2023-05-13T02:45:14;11.20;1.00
19805;DHT22;10062;51.052;13.756;2023-05-13T02:47:50;11.10;1.00
19805;DHT22;10062;51.052;13.756;2023-05-13T02:50:22;11.00;1.00
19805;DHT22;10062;51.052;13.756;2023-05-13T02:52:54;10.80;1.00
19805;DHT22;10062;51.052;13.756;2023-05-13T02:55:29;10.60;1.00
19805;DHT22;10062;51.052;13.756;2023-05-13T02:58:02;10.70;1.00
19805;DHT22;10062;51.052;13.756;2023-05-13T03:00:34;10.60;1.00
19805;DHT22;10062;51.052;13.756;2023-05-13T03:03:06;10.70;1.00
19805;DHT22;10062;51.052;13.756;2023-05-13T03:05:37;10.70;1.00
19805;DHT22;10062;51.052;13.756;2023-05-13T03:08:09;10.70;1.00
19805;DHT22;10062;51.052;13.756;2023-05-13T03:10:43;10.70;1.00
19805;DHT22;10062;51.052;13.756;2023-05-13T03:13:16;10.80;1.00
19805;DHT22;10062;51.052;13.756;2023-05-13T03:15:48;10.90;1.00
19805;DHT22;10062;51.052;13.756;2023-05-13T03:18:19;10.80;1.00
19805;DHT22;10062;51.052;13.756;2023-05-13T03:20:51;10.80;1.00
19805;DHT22;10062;51.052;13.756;2023-05-13T03:25:59;10.80;1.00
19805;DHT22;10062;51.052;13.756;2023-05-13T03:28:31;10.90;1.00
19805;DHT22;10062;51.052;13.756;2023-05-13T03:31:03;10.90;1.00
19805;DHT22;10062;51.052;13.756;2023-05-13T03:33:39;10.70;1.00
19805;DHT22;10062;51.052;13.756;2023-05-13T03:36:11;10.60;1.00
19805;DHT22;10062;51.052;13.756;2023-05-13T03:38:42;10.70;1.00
19805;DHT22;10062;51.052;13.756;2023-05-13T03:41:15;10.70;1.00
19805;DHT22;10062;51.052;13.756;2023-05-13T03:43:49;10.70;1.00
19805;DHT22;10062;51.052;13.756;2023-05-13T03:48:53;10.70;1.00
19805;DHT22;10062;51.052;13.756;2023-05-13T03:51:25;10.50;1.00
19805;DHT22;10062;51.052;13.756;2023-05-13T03:56:30;10.60;1.00
19805;DHT22;10062;51.052;13.756;2023-05-13T03:59:03;10.60;1.00
19805;DHT22;10062;51.052;13.756;2023-05-13T04:01:35;10.50;1.00
19805;DHT22;10062;51.052;13.756;2023-05-13T04:04:06;10.60;1.00
19805;DHT22;10062;51.052;13.756;2023-05-13T04:06:38;10.60;1.00
19805;DHT22;10062;51.052;13.756;2023-05-13T04:09:10;10.40;1.00
19805;DHT22;10062;51.052;13.756;2023-05-13T04:14:15;10.40;1.00
19805;DHT22;10062;51.052;13.756;2023-05-13T04:16:47;10.40;1.00
19805;DHT22;10062;51.052;13.756;2023-05-13T04:19:19;10.30;1.00
19805;DHT22;10062;51.052;13.756;2023-05-13T04:21:50;10.30;1.00
19805;DHT22;10062;51.052;13.756;2023-05-13T04:24:22;10.30;1.00
19805;DHT22;10062;51.052;13.756;2023-05-13T04:26:55;10.20;1.00
19805;DHT22;10062;51.052;13.756;2023-05-13T04:29:27;8.90;1.00
19805;DHT22;10062;51.052;13.756;2023-05-13T04:31:59;10.20;1.00
19805;DHT22;10062;51.052;13.756;2023-05-13T04:34:31;10.10;1.00
19805;DHT22;10062;51.052;13.756;2023-05-13T04:37:03;9.90;1.00
19805;DHT22;10062;51.052;13.756;2023-05-13T04:39:34;10.10;1.00
19805;DHT22;10062;51.052;13.756;2023-05-13T04:42:07;10.40;1.00
19805;DHT22;10062;51.052;13.756;2023-05-13T04:47:11;10.30;1.00
19805;DHT22;10062;51.052;13.756;2023-05-13T04:49:43;10.40;1.00
19805;DHT22;10062;51.052;13.756;2023-05-13T04:52:15;10.30;1.00
19805;DHT22;10062;51.052;13.756;2023-05-13T04:57:21;10.40;1.00
19805;DHT22;10062;51.052;13.756;2023-05-13T05:02:25;10.40;1.00
19805;DHT22;10062;51.052;13.756;2023-05-13T05:04:59;10.40;1.00
19805;DHT22;10062;51.052;13.756;2023-05-13T05:10:04;10.40;1.00
19805;DHT22;10062;51.052;13.756;2023-05-13T05:12:37;10.50;1.00
19805;DHT22;10062;51.052;13.756;2023-05-13T05:15:10;10.60;1.00
19805;DHT22;10062;51.052;13.756;2023-05-13T05:17:45;10.50;1.00
19805;DHT22;10062;51.052;13.756;2023-05-13T05:20:17;10.60;1.00
19805;DHT22;10062;51.052;13.756;2023-05-13T05:22:51;10.60;1.00
19805;DHT22;10062;51.052;13.756;2023-05-13T05:25:26;10.70;1.00
19805;DHT22;10062;51.052;13.756;2023-05-13T05:27:59;10.90;1.00
19805;DHT22;10062;51.052;13.756;2023-05-13T05:30:31;10.90;1.00
19805;DHT22;10062;51.052;13.756;2023-05-13T05:33:09;15.20;1.00
19805;DHT22;10062;51.052;13.756;2023-05-13T05:35:43;11.30;1.00
19805;DHT22;10062;51.052;13.756;2023-05-13T05:38:18;11.40;1.00
19805;DHT22;10062;51.052;13.756;2023-05-13T05:40:50;11.40;1.00
19805;DHT22;10062;51.052;13.756;2023-05-13T05:43:24;11.60;1.00
19805;DHT22;10062;51.052;13.756;2023-05-13T05:45:56;11.60;1.00
19805;DHT22;10062;51.052;13.756;2023-05-13T05:48:29;11.60;1.00
19805;DHT22;10062;51.052;13.756;2023-05-13T05:51:01;11.80;1.00
19805;DHT22;10062;51.052;13.756;2023-05-13T05:53:35;11.80;1.00
19805;DHT22;10062;51.052;13.756;2023-05-13T05:56:10;12.10;99.90
19805;DHT22;10062;51.052;13.756;2023-05-13T05:58:43;12.10;99.90
19805;DHT22;10062;51.052;13.756;2023-05-13T06:01:15;12.30;99.90
19805;DHT22;10062;51.052;13.756;2023-05-13T06:03:47;12.50;99.90
19805;DHT22;10062;51.052;13.756;2023-05-13T06:06:20;12.80;1.00
19805;DHT22;10062;51.052;13.756;2023-05-13T06:08:52;12.90;1.00
19805;DHT22;10062;51.052;13.756;2023-05-13T06:11:24;12.90;99.90
19805;DHT22;10062;51.052;13.756;2023-05-13T06:13:57;13.00;99.90
19805;DHT22;10062;51.052;13.756;2023-05-13T06:16:29;13.10;1.00
19805;DHT22;10062;51.052;13.756;2023-05-13T06:19:01;13.10;1.00
19805;DHT22;10062;51.052;13.756;2023-05-13T06:21:33;13.20;1.00
19805;DHT22;10062;51.052;13.756;2023-05-13T06:24:05;13.30;1.00
19805;DHT22;10062;51.052;13.756;2023-05-13T06:26:37;13.60;1.00
19805;DHT22;10062;51.052;13.756;2023-05-13T06:29:10;13.70;1.00
19805;DHT22;10062;51.052;13.756;2023-05-13T06:31:42;13.90;1.00
19805;DHT22;10062;51.052;13.756;2023-05-13T06:34:14;14.10;1.00
19805;DHT22;10062;51.052;13.756;2023-05-13T06:36:46;14.30;1.00
19805;DHT22;10062;51.052;13.756;2023-05-13T06:39:18;14.50;1.00
19805;DHT22;10062;51.052;13.756;2023-05-13T06:41:50;14.60;1.00
19805;DHT22;10062;51.052;13.756;2023-05-13T06:44:23;14.80;1.00
19805;DHT22;10062;51.052;13.756;2023-05-13T06:46:58;15.00;99.90
19805;DHT22;10062;51.052;13.756;2023-05-13T06:49:32;15.30;1.00
19805;DHT22;10062;51.052;13.756;2023-05-13T06:52:04;15.60;1.00
19805;DHT22;10062;51.052;13.756;2023-05-13T06:54:36;15.80;1.00
19805;DHT22;10062;51.052;13.756;2023-05-13T06:57:07;15.80;99.90
19805;DHT22;10062;51.052;13.756;2023-05-13T06:59:40;15.90;1.00
19805;DHT22;10062;51.052;13.756;2023-05-13T07:02:12;15.60;99.90
19805;DHT22;10062;51.052;13.756;2023-05-13T07:04:44;15.70;1.00
19805;DHT22;10062;51.052;13.756;2023-05-13T07:07:15;15.80;54.90
19805;DHT22;10062;51.052;13.756;2023-05-13T07:09:47;16.90;99.90
19805;DHT22;10062;51.052;13.756;2023-05-13T07:12:19;16.90;99.90
19805;DHT22;10062;51.052;13.756;2023-05-13T07:14:51;17.40;1.00
19805;DHT22;10062;51.052;13.756;2023-05-13T07:17:23;17.70;1.00
19805;DHT22;10062;51.052;13.756;2023-05-13T07:19:55;17.50;1.00
19805;DHT22;10062;51.052;13.756;2023-05-13T07:22:27;17.90;99.90
19805;DHT22;10062;51.052;13.756;2023-05-13T07:27:30;18.00;1.00
19805;DHT22;10062;51.052;13.756;2023-05-13T07:30:04;18.40;1.00
19805;DHT22;10062;51.052;13.756;2023-05-13T07:32:36;18.90;1.00
19805;DHT22;10062;51.052;13.756;2023-05-13T07:35:08;18.50;1.00
19805;DHT22;10062;51.052;13.756;2023-05-13T07:37:40;18.70;1.00
19805;DHT22;10062;51.052;13.756;2023-05-13T07:40:12;19.20;1.00
19805;DHT22;10062;51.052;13.756;2023-05-13T07:42:44;19.80;1.00
19805;DHT22;10062;51.052;13.756;2023-05-13T07:45:17;19.80;1.00
19805;DHT22;10062;51.052;13.756;2023-05-13T07:47:49;20.50;1.00
19805;DHT22;10062;51.052;13.756;2023-05-13T07:50:20;20.80;99.90
19805;DHT22;10062;51.052;13.756;2023-05-13T07:52:52;21.10;99.90
19805;DHT22;10062;51.052;13.756;2023-05-13T07:55:23;21.30;99.90
19805;DHT22;10062;51.052;13.756;2023-05-13T07:57:55;21.30;99.90
19805;DHT22;10062;51.052;13.756;2023-05-13T08:00:28;21.30;99.90
19805;DHT22;10062;51.052;13.756;2023-05-13T08:03:00;21.50;99.90
19805;DHT22;10062;51.052;13.756;2023-05-13T08:05:32;24.80;99.90
19805;DHT22;10062;51.052;13.756;2023-05-13T08:08:04;21.30;99.90
19805;DHT22;10062;51.052;13.756;2023-05-13T08:10:35;21.60;99.90
19805;DHT22;10062;51.052;13.756;2023-05-13T08:13:07;21.90;99.90
19805;DHT22;10062;51.052;13.756;2023-05-13T08:15:40;21.50;33.70
19805;DHT22;10062;51.052;13.756;2023-05-13T08:18:12;21.60;66.70
19805;DHT22;10062;51.052;13.756;2023-05-13T08:20:43;22.10;35.90
19805;DHT22;10062;51.052;13.756;2023-05-13T08:23:16;22.70;20.70
19805;DHT22;10062;51.052;13.756;2023-05-13T08:25:48;22.80;1.00
19805;DHT22;10062;51.052;13.756;2023-05-13T08:28:19;22.90;1.00
19805;DHT22;10062;51.052;13.756;2023-05-13T08:30:52;23.50;1.00
19805;DHT22;10062;51.052;13.756;2023-05-13T08:33:24;22.70;1.00
19805;DHT22;10062;51.052;13.756;2023-05-13T08:35:56;23.50;1.00
19805;DHT22;10062;51.052;13.756;2023-05-13T08:38:27;23.70;1.00
19805;DHT22;10062;51.052;13.756;2023-05-13T08:41:01;24.10;1.00
19805;DHT22;10062;51.052;13.756;2023-05-13T08:43:34;24.90;1.00
19805;DHT22;10062;51.052;13.756;2023-05-13T08:46:10;25.10;1.00
19805;DHT22;10062;51.052;13.756;2023-05-13T08:48:42;26.20;1.00
19805;DHT22;10062;51.052;13.756;2023-05-13T08:51:14;26.90;1.00
19805;DHT22;10062;51.052;13.756;2023-05-13T08:53:46;26.30;1.00
19805;DHT22;10062;51.052;13.756;2023-05-13T08:56:19;27.70;1.00
19805;DHT22;10062;51.052;13.756;2023-05-13T08:58:51;29.10;1.00
19805;DHT22;10062;51.052;13.756;2023-05-13T09:01:25;29.20;1.00
19805;DHT22;10062;51.052;13.756;2023-05-13T09:03:58;29.10;1.00
19805;DHT22;10062;51.052;13.756;2023-05-13T09:06:31;28.60;1.00
19805;DHT22;10062;51.052;13.756;2023-05-13T09:09:03;26.60;1.00
19805;DHT22;10062;51.052;13.756;2023-05-13T09:11:35;26.10;1.00
19805;DHT22;10062;51.052;13.756;2023-05-13T09:14:09;25.40;1.00
19805;DHT22;10062;51.052;13.756;2023-05-13T09:16:43;25.20;1.00
19805;DHT22;10062;51.052;13.756;2023-05-13T09:19:15;24.90;1.00
19805;DHT22;10062;51.052;13.756;2023-05-13T09:21:46;24.80;1.00
19805;DHT22;10062;51.052;13.756;2023-05-13T09:24:18;24.60;1.00
19805;DHT22;10062;51.052;13.756;2023-05-13T09:26:51;24.70;1.00
19805;DHT22;10062;51.052;13.756;2023-05-13T09:29:24;24.60;1.00
19805;DHT22;10062;51.052;13.756;2023-05-13T09:31:58;23.50;1.00
19805;DHT22;10062;51.052;13.756;2023-05-13T09:34:31;23.60;1.00
19805;DHT22;10062;51.052;13.756;2023-05-13T09:37:05;23.20;1.00
19805;DHT22;10062;51.052;13.756;2023-05-13T09:39:38;24.70;1.00
19805;DHT22;10062;51.052;13.756;2023-05-13T09:42:14;27.00;1.00
19805;DHT22;10062;51.052;13.756;2023-05-13T09:44:46;28.40;1.00
19805;DHT22;10062;51.052;13.756;2023-05-13T09:47:23;28.20;1.00
19805;DHT22;10062;51.052;13.756;2023-05-13T09:49:55;28.50;1.00
19805;DHT22;10062;51.052;13.756;2023-05-13T09:52:28;29.50;1.00
19805;DHT22;10062;51.052;13.756;2023-05-13T09:55:01;29.90;1.00
19805;DHT22;10062;51.052;13.756;2023-05-13T09:57:34;29.20;1.00
19805;DHT22;10062;51.052;13.756;2023-05-13T10:00:06;28.40;1.00
19805;DHT22;10062;51.052;13.756;2023-05-13T10:02:43;25.20;1.00
19805;DHT22;10062;51.052;13.756;2023-05-13T10:05:14;23.10;1.00
19805;DHT22;10062;51.052;13.756;2023-05-13T10:07:46;21.90;1.00
19805;DHT22;10062;51.052;13.756;2023-05-13T10:10:18;22.30;1.00
19805;DHT22;10062;51.052;13.756;2023-05-13T10:12:51;22.70;1.00
19805;DHT22;10062;51.052;13.756;2023-05-13T10:15:24;22.80;1.00
19805;DHT22;10062;51.052;13.756;2023-05-13T10:17:57;23.10;1.00
19805;DHT22;10062;51.052;13.756;2023-05-13T10:20:29;24.60;1.00
19805;DHT22;10062;51.052;13.756;2023-05-13T10:23:02;24.00;1.00
19805;DHT22;10062;51.052;13.756;2023-05-13T10:25:35;24.70;1.00
19805;DHT22;10062;51.052;13.756;2023-05-13T10:28:07;25.20;1.00
19805;DHT22;10062;51.052;13.756;2023-05-13T10:30:40;25.10;1.00
19805;DHT22;10062;51.052;13.756;2023-05-13T10:33:15;24.40;1.00
19805;DHT22;10062;51.052;13.756;2023-05-13T10:35:53;24.50;1.00
19805;DHT22;10062;51.052;13.756;2023-05-13T10:38:38;24.10;1.00
19805;DHT22;10062;51.052;13.756;2023-05-13T10:41:29;23.80;1.00
19805;DHT22;10062;51.052;13.756;2023-05-13T10:44:05;24.20;1.00
19805;DHT22;10062;51.052;13.756;2023-05-13T10:46:37;22.80;1.00
19805;DHT22;10062;51.052;13.756;2023-05-13T10:49:14;22.60;1.00
19805;DHT22;10062;51.052;13.756;2023-05-13T10:51:46;22.30;1.00
19805;DHT22;10062;51.052;13.756;2023-05-13T10:54:20;24.10;1.00
19805;DHT22;10062;51.052;13.756;2023-05-13T10:56:55;22.30;1.00
19805;DHT22;10062;51.052;13.756;2023-05-13T10:59:27;22.20;1.00
19805;DHT22;10062;51.052;13.756;2023-05-13T11:02:00;21.90;1.00
19805;DHT22;10062;51.052;13.756;2023-05-13T11:04:57;21.40;1.00
19805;DHT22;10062;51.052;13.756;2023-05-13T11:07:29;21.50;1.00
19805;DHT22;10062;51.052;13.756;2023-05-13T11:10:01;21.40;1.00
19805;DHT22;10062;51.052;13.756;2023-05-13T11:12:32;21.40;1.00
19805;DHT22;10062;51.052;13.756;2023-05-13T11:15:20;21.10;1.00
19805;DHT22;10062;51.052;13.756;2023-05-13T11:17:52;21.00;1.00
19805;DHT22;10062;51.052;13.756;2023-05-13T11:20:25;21.00;1.00
19805;DHT22;10062;51.052;13.756;2023-05-13T11:22:57;20.20;1.00
19805;DHT22;10062;51.052;13.756;2023-05-13T11:25:29;20.20;1.00
19805;DHT22;10062;51.052;13.756;2023-05-13T11:28:02;20.60;1.00
19805;DHT22;10062;51.052;13.756;2023-05-13T11:33:05;20.60;1.00
19805;DHT22;10062;51.052;13.756;2023-05-13T11:35:52;20.60;1.00
19805;DHT22;10062;51.052;13.756;2023-05-13T11:38:24;20.40;1.00
19805;DHT22;10062;51.052;13.756;2023-05-13T11:40:56;20.10;1.00
19805;DHT22;10062;51.052;13.756;2023-05-13T11:43:28;20.40;1.00
19805;DHT22;10062;51.052;13.756;2023-05-13T11:46:01;20.50;1.00
19805;DHT22;10062;51.052;13.756;2023-05-13T11:48:34;20.70;1.00
19805;DHT22;10062;51.052;13.756;2023-05-13T11:51:07;20.40;1.00
19805;DHT22;10062;51.052;13.756;2023-05-13T11:53:39;20.50;1.00
19805;DHT22;10062;51.052;13.756;2023-05-13T11:56:11;20.60;1.00
19805;DHT22;10062;51.052;13.756;2023-05-13T11:58:42;20.80;1.00
19805;DHT22;10062;51.052;13.756;2023-05-13T12:01:14;20.80;1.00
19805;DHT22;10062;51.052;13.756;2023-05-13T12:03:46;20.80;1.00
19805;DHT22;10062;51.052;13.756;2023-05-13T12:06:19;20.90;1.00
19805;DHT22;10062;51.052;13.756;2023-05-13T12:08:50;21.30;1.00
19805;DHT22;10062;51.052;13.756;2023-05-13T12:11:22;20.70;1.00
19805;DHT22;10062;51.052;13.756;2023-05-13T12:13:54;20.50;1.00
19805;DHT22;10062;51.052;13.756;2023-05-13T12:16:26;20.30;1.00
19805;DHT22;10062;51.052;13.756;2023-05-13T12:18:59;20.30;1.00
19805;DHT22;10062;51.052;13.756;2023-05-13T12:21:32;20.50;1.00
19805;DHT22;10062;51.052;13.756;2023-05-13T12:24:18;20.50;1.00
19805;DHT22;10062;51.052;13.756;2023-05-13T12:26:50;20.40;1.00
19805;DHT22;10062;51.052;13.756;2023-05-13T12:29:22;19.70;1.00
19805;DHT22;10062;51.052;13.756;2023-05-13T12:32:04;19.60;1.00
19805;DHT22;10062;51.052;13.756;2023-05-13T12:34:36;19.20;1.00
19805;DHT22;10062;51.052;13.756;2023-05-13T12:37:11;19.10;1.00
19805;DHT22;10062;51.052;13.756;2023-05-13T12:39:43;19.20;1.00
19805;DHT22;10062;51.052;13.756;2023-05-13T12:42:15;19.10;1.00
19805;DHT22;10062;51.052;13.756;2023-05-13T12:44:47;18.90;1.00
19805;DHT22;10062;51.052;13.756;2023-05-13T12:47:19;18.90;1.00
19805;DHT22;10062;51.052;13.756;2023-05-13T12:49:53;18.90;55.40
19805;DHT22;10062;51.052;13.756;2023-05-13T12:52:26;18.70;75.80
19805;DHT22;10062;51.052;13.756;2023-05-13T12:54:58;18.80;57.30
19805;DHT22;10062;51.052;13.756;2023-05-13T12:57:29;18.70;83.10
19805;DHT22;10062;51.052;13.756;2023-05-13T13:00:01;18.70;94.60
19805;DHT22;10062;51.052;13.756;2023-05-13T13:02:32;18.80;99.90
19805;DHT22;10062;51.052;13.756;2023-05-13T13:05:05;18.90;99.90
19805;DHT22;10062;51.052;13.756;2023-05-13T13:07:38;19.10;99.90
19805;DHT22;10062;51.052;13.756;2023-05-13T13:10:11;19.30;71.20
19805;DHT22;10062;51.052;13.756;2023-05-13T13:12:43;19.40;76.30
19805;DHT22;10062;51.052;13.756;2023-05-13T13:15:14;19.30;97.60
19805;DHT22;10062;51.052;13.756;2023-05-13T13:17:46;19.50;50.80
19805;DHT22;10062;51.052;13.756;2023-05-13T13:20:18;19.70;90.50
19805;DHT22;10062;51.052;13.756;2023-05-13T13:22:52;19.90;52.80
19805;DHT22;10062;51.052;13.756;2023-05-13T13:27:56;19.70;37.10
19805;DHT22;10062;51.052;13.756;2023-05-13T13:30:28;20.00;41.80
19805;DHT22;10062;51.052;13.756;2023-05-13T13:33:00;19.50;27.50
19805;DHT22;10062;51.052;13.756;2023-05-13T13:35:32;19.30;98.40
19805;DHT22;10062;51.052;13.756;2023-05-13T13:38:05;19.60;74.80
19805;DHT22;10062;51.052;13.756;2023-05-13T13:40:37;20.10;43.90
19805;DHT22;10062;51.052;13.756;2023-05-13T13:43:09;19.20;30.80
19805;DHT22;10062;51.052;13.756;2023-05-13T13:45:40;19.00;28.40
19805;DHT22;10062;51.052;13.756;2023-05-13T13:48:12;19.20;81.60
19805;DHT22;10062;51.052;13.756;2023-05-13T13:50:44;19.40;48.30
19805;DHT22;10062;51.052;13.756;2023-05-13T13:53:17;19.50;34.60
19805;DHT22;10062;51.052;13.756;2023-05-13T13:55:48;19.40;48.70
19805;DHT22;10062;51.052;13.756;2023-05-13T13:58:20;19.20;53.10
19805;DHT22;10062;51.052;13.756;2023-05-13T14:00:52;19.10;7.30
19805;DHT22;10062;51.052;13.756;2023-05-13T14:03:23;18.60;29.20
19805;DHT22;10062;51.052;13.756;2023-05-13T14:05:55;18.70;91.10
19805;DHT22;10062;51.052;13.756;2023-05-13T14:08:28;18.80;81.00
19805;DHT22;10062;51.052;13.756;2023-05-13T14:11:00;18.70;99.90
19805;DHT22;10062;51.052;13.756;2023-05-13T14:13:31;18.70;99.90
19805;DHT22;10062;51.052;13.756;2023-05-13T14:16:04;18.70;99.90
19805;DHT22;10062;51.052;13.756;2023-05-13T14:18:35;18.80;99.90
19805;DHT22;10062;51.052;13.756;2023-05-13T14:21:07;18.90;99.90
19805;DHT22;10062;51.052;13.756;2023-05-13T14:23:40;18.90;99.90
19805;DHT22;10062;51.052;13.756;2023-05-13T14:26:12;18.90;99.90
19805;DHT22;10062;51.052;13.756;2023-05-13T14:31:17;18.90;99.90
19805;DHT22;10062;51.052;13.756;2023-05-13T14:33:48;18.70;99.90
19805;DHT22;10062;51.052;13.756;2023-05-13T14:38:55;18.70;99.90
19805;DHT22;10062;51.052;13.756;2023-05-13T14:41:26;18.60;99.90
19805;DHT22;10062;51.052;13.756;2023-05-13T14:43:58;18.30;99.90
19805;DHT22;10062;51.052;13.756;2023-05-13T14:46:32;18.60;99.90
19805;DHT22;10062;51.052;13.756;2023-05-13T14:49:06;18.60;99.90
19805;DHT22;10062;51.052;13.756;2023-05-13T14:51:38;18.70;99.90
19805;DHT22;10062;51.052;13.756;2023-05-13T14:54:11;18.70;99.90
19805;DHT22;10062;51.052;13.756;2023-05-13T14:56:43;18.80;99.90
19805;DHT22;10062;51.052;13.756;2023-05-13T14:59:15;18.90;99.90
19805;DHT22;10062;51.052;13.756;2023-05-13T15:01:47;18.90;99.90
19805;DHT22;10062;51.052;13.756;2023-05-13T15:04:18;18.70;99.90
19805;DHT22;10062;51.052;13.756;2023-05-13T15:06:50;18.80;99.90
19805;DHT22;10062;51.052;13.756;2023-05-13T15:09:23;19.00;99.90
19805;DHT22;10062;51.052;13.756;2023-05-13T15:11:54;18.90;99.90
19805;DHT22;10062;51.052;13.756;2023-05-13T15:14:26;18.90;99.90
19805;DHT22;10062;51.052;13.756;2023-05-13T15:16:58;18.90;99.90
19805;DHT22;10062;51.052;13.756;2023-05-13T15:19:30;18.90;99.90
19805;DHT22;10062;51.052;13.756;2023-05-13T15:22:01;18.70;99.90
19805;DHT22;10062;51.052;13.756;2023-05-13T15:24:35;18.70;99.90
19805;DHT22;10062;51.052;13.756;2023-05-13T15:27:08;18.70;99.90
19805;DHT22;10062;51.052;13.756;2023-05-13T15:29:40;18.70;99.90
19805;DHT22;10062;51.052;13.756;2023-05-13T15:32:12;18.70;1.00
19805;DHT22;10062;51.052;13.756;2023-05-13T15:34:43;18.60;1.00
19805;DHT22;10062;51.052;13.756;2023-05-13T15:37:15;18.50;1.00
19805;DHT22;10062;51.052;13.756;2023-05-13T15:39:48;18.40;1.00
19805;DHT22;10062;51.052;13.756;2023-05-13T15:42:20;18.20;1.00
19805;DHT22;10062;51.052;13.756;2023-05-13T15:44:52;18.20;1.00
19805;DHT22;10062;51.052;13.756;2023-05-13T15:47:24;18.20;1.00
19805;DHT22;10062;51.052;13.756;2023-05-13T15:49:55;18.20;1.00
19805;DHT22;10062;51.052;13.756;2023-05-13T15:52:27;18.10;1.00
19805;DHT22;10062;51.052;13.756;2023-05-13T15:55:01;18.10;1.00
19805;DHT22;10062;51.052;13.756;2023-05-13T15:57:32;18.10;1.00
19805;DHT22;10062;51.052;13.756;2023-05-13T16:00:05;18.10;1.00
19805;DHT22;10062;51.052;13.756;2023-05-13T16:02:37;18.10;1.00
19805;DHT22;10062;51.052;13.756;2023-05-13T16:05:09;18.10;1.00
19805;DHT22;10062;51.052;13.756;2023-05-13T16:07:44;17.90;1.00
19805;DHT22;10062;51.052;13.756;2023-05-13T16:10:17;17.90;1.00
19805;DHT22;10062;51.052;13.756;2023-05-13T16:12:49;17.80;1.00
19805;DHT22;10062;51.052;13.756;2023-05-13T16:15:21;17.80;1.00
19805;DHT22;10062;51.052;13.756;2023-05-13T16:17:52;17.80;1.00
19805;DHT22;10062;51.052;13.756;2023-05-13T16:20:24;17.70;1.00
19805;DHT22;10062;51.052;13.756;2023-05-13T16:22:56;17.60;1.00
19805;DHT22;10062;51.052;13.756;2023-05-13T16:25:29;17.50;1.00
19805;DHT22;10062;51.052;13.756;2023-05-13T16:30:32;17.20;1.00
19805;DHT22;10062;51.052;13.756;2023-05-13T16:33:04;17.10;1.00
19805;DHT22;10062;51.052;13.756;2023-05-13T16:35:37;17.30;1.00
19805;DHT22;10062;51.052;13.756;2023-05-13T16:38:08;17.00;1.00